createdAt,value
2019-03-31T00:00:20.585Z,13.36
2019-03-31T00:04:37.462Z,13.31
2019-03-31T00:08:52.975Z,13.31
2019-03-31T00:13:11.448Z,13.37
2019-03-31T00:17:59.498Z,13.26
2019-03-31T00:22:41.271Z,13.15
2019-03-31T00:27:40.434Z,13.04
2019-03-31T00:32:01.431Z,12.86
2019-03-31T00:36:10.557Z,12.73
2019-03-31T00:40:28.008Z,12.54
2019-03-31T00:44:37.191Z,12.34
2019-03-31T00:48:44.930Z,12.13
2019-03-31T00:52:53.574Z,11.53
2019-03-31T00:57:01.193Z,11.52
2019-03-31T01:01:36.975Z,11.55
2019-03-31T01:05:45.929Z,11.36
2019-03-31T01:09:58.825Z,11.41
2019-03-31T01:14:06.524Z,11.12
2019-03-31T01:18:14.371Z,11.00
2019-03-31T01:22:21.888Z,10.80
2019-03-31T01:26:29.521Z,10.67
2019-03-31T01:30:37.157Z,10.70
2019-03-31T01:34:44.740Z,10.56
2019-03-31T01:38:52.276Z,10.51
2019-03-31T01:42:59.821Z,10.37
2019-03-31T01:47:07.807Z,10.32
2019-03-31T01:51:15.334Z,10.14
2019-03-31T01:55:22.997Z,10.00
2019-03-31T01:59:30.671Z,9.93
2019-03-31T02:03:38.392Z,9.92
2019-03-31T02:07:45.955Z,9.71
2019-03-31T02:11:53.700Z,9.67
2019-03-31T02:16:03.287Z,9.57
2019-03-31T02:20:10.908Z,9.50
2019-03-31T02:24:18.447Z,9.48
2019-03-31T02:28:26.008Z,9.45
2019-03-31T02:32:33.556Z,9.36
2019-03-31T02:36:42.009Z,9.31
2019-03-31T02:40:49.598Z,9.23
2019-03-31T02:44:57.113Z,9.15
2019-03-31T02:49:04.811Z,9.24
2019-03-31T02:53:12.380Z,9.11
2019-03-31T02:57:22.884Z,9.04
2019-03-31T03:01:31.513Z,9.00
2019-03-31T03:05:43.097Z,9.03
2019-03-31T03:09:53.847Z,8.96
2019-03-31T03:14:05.217Z,8.94
2019-03-31T03:18:12.744Z,8.83
2019-03-31T03:22:21.264Z,8.91
2019-03-31T03:26:28.893Z,9.02
2019-03-31T03:30:36.525Z,8.97
2019-03-31T03:34:44.389Z,8.83
2019-03-31T03:38:51.941Z,8.74
2019-03-31T03:42:59.571Z,8.68
2019-03-31T03:47:07.126Z,8.69
2019-03-31T03:51:14.651Z,8.69
2019-03-31T03:55:22.255Z,8.59
2019-03-31T03:59:29.814Z,8.38
2019-03-31T04:03:37.587Z,8.25
2019-03-31T04:07:45.077Z,8.13
2019-03-31T04:11:52.618Z,8.08
2019-03-31T04:16:03.213Z,8.07
2019-03-31T04:20:11.965Z,8.02
2019-03-31T04:24:19.544Z,8.04
2019-03-31T04:28:27.045Z,8.17
2019-03-31T04:32:38.572Z,8.17
2019-03-31T04:36:43.914Z,8.11
2019-03-31T04:40:52.555Z,8.03
2019-03-31T04:45:00.175Z,8.03
2019-03-31T04:49:09.356Z,7.87
2019-03-31T04:53:16.912Z,7.83
2019-03-31T04:57:25.685Z,7.84
2019-03-31T05:01:33.254Z,7.70
2019-03-31T05:05:40.798Z,7.65
2019-03-31T05:09:48.514Z,7.70
2019-03-31T05:13:56.009Z,7.63
2019-03-31T05:18:03.434Z,7.56
2019-03-31T05:22:11.141Z,7.51
2019-03-31T05:26:18.750Z,7.52
2019-03-31T05:30:26.560Z,7.51
2019-03-31T05:34:34.297Z,7.54
2019-03-31T05:38:41.890Z,7.38
2019-03-31T05:42:50.435Z,7.47
2019-03-31T05:46:58.044Z,7.36
2019-03-31T05:51:05.604Z,7.34
2019-03-31T05:55:13.460Z,7.39
2019-03-31T05:59:20.966Z,7.51
2019-03-31T06:03:28.513Z,7.43
2019-03-31T06:07:36.136Z,7.51
2019-03-31T06:11:43.879Z,7.59
2019-03-31T06:15:51.382Z,7.58
2019-03-31T06:19:58.915Z,7.70
2019-03-31T06:24:06.467Z,7.66
2019-03-31T06:28:14.338Z,7.74
2019-03-31T06:32:21.986Z,7.83
2019-03-31T06:36:29.799Z,7.80
2019-03-31T06:40:37.371Z,7.77
2019-03-31T06:44:44.999Z,7.98
2019-03-31T06:48:52.517Z,7.98
2019-03-31T06:53:00.084Z,8.24
2019-03-31T06:57:07.583Z,8.29
2019-03-31T07:01:15.538Z,8.44
2019-03-31T07:05:23.234Z,8.53
2019-03-31T07:09:31.341Z,8.66
2019-03-31T07:13:39.689Z,8.97
2019-03-31T07:17:47.493Z,9.06
2019-03-31T07:21:57.017Z,9.02
2019-03-31T07:26:05.163Z,9.24
2019-03-31T07:30:15.070Z,9.52
2019-03-31T07:34:22.995Z,9.58
2019-03-31T07:38:38.674Z,9.85
2019-03-31T07:42:43.738Z,10.16
2019-03-31T07:46:53.532Z,10.39
2019-03-31T07:51:03.131Z,10.61
2019-03-31T07:55:14.249Z,10.94
2019-03-31T07:59:22.124Z,11.65
2019-03-31T08:03:30.067Z,12.01
2019-03-31T08:07:38.231Z,12.32
2019-03-31T08:11:46.843Z,12.22
2019-03-31T08:15:55.462Z,12.69
2019-03-31T08:20:03.480Z,13.05
2019-03-31T08:24:11.289Z,13.53
2019-03-31T08:28:20.106Z,13.70
2019-03-31T08:32:29.120Z,14.07
2019-03-31T08:36:39.598Z,13.95
2019-03-31T08:40:49.187Z,14.40
2019-03-31T08:44:57.343Z,14.92
2019-03-31T08:53:38.377Z,16.28
2019-03-31T08:57:50.585Z,16.69
2019-03-31T09:01:58.816Z,16.91
2019-03-31T09:06:07.114Z,17.89
2019-03-31T09:10:16.017Z,18.08
2019-03-31T09:14:24.943Z,18.46
2019-03-31T09:18:33.460Z,18.56
2019-03-31T09:22:43.964Z,18.89
2019-03-31T09:26:52.784Z,19.72
2019-03-31T09:31:08.044Z,19.28
2019-03-31T09:35:17.186Z,19.45
2019-03-31T09:39:27.270Z,19.01
2019-03-31T09:43:36.654Z,20.26
2019-03-31T09:47:44.533Z,19.73
2019-03-31T09:51:54.547Z,20.23
2019-03-31T09:56:03.238Z,19.91
2019-03-31T10:00:14.088Z,20.26
2019-03-31T10:04:23.250Z,20.22
2019-03-31T10:08:32.165Z,20.53
2019-03-31T10:12:40.304Z,20.27
2019-03-31T10:16:48.754Z,19.90
2019-03-31T10:20:56.821Z,20.14
2019-03-31T10:25:05.469Z,20.02
2019-03-31T10:29:13.492Z,19.91
2019-03-31T10:33:24.141Z,20.05
2019-03-31T10:37:41.667Z,20.14
2019-03-31T10:41:50.528Z,20.15
2019-03-31T10:46:17.023Z,20.28
2019-03-31T10:50:25.038Z,20.48
2019-03-31T10:55:26.668Z,20.77
2019-03-31T10:59:42.747Z,20.89
2019-03-31T11:03:51.868Z,21.10
2019-03-31T11:08:02.448Z,21.43
2019-03-31T11:12:14.111Z,21.72
2019-03-31T11:16:22.263Z,21.81
2019-03-31T11:20:30.974Z,22.39
2019-03-31T11:24:43.965Z,22.11
2019-03-31T11:28:51.915Z,23.06
2019-03-31T11:33:00.257Z,22.94
2019-03-31T11:37:13.842Z,23.36
2019-03-31T11:41:18.239Z,23.33
2019-03-31T11:45:26.804Z,23.10
2019-03-31T11:49:37.510Z,23.64
2019-03-31T11:58:32.153Z,23.55
2019-03-31T12:07:01.474Z,23.68
2019-03-31T12:11:11.265Z,24.08
2019-03-31T12:15:19.313Z,24.27
2019-03-31T12:19:27.360Z,23.64
2019-03-31T12:23:36.091Z,23.75
2019-03-31T12:27:43.851Z,24.21
2019-03-31T12:31:51.926Z,23.71
2019-03-31T12:35:59.865Z,23.53
2019-03-31T12:40:09.775Z,24.17
2019-03-31T12:44:18.838Z,24.17
2019-03-31T12:48:35.377Z,23.82
2019-03-31T12:52:51.134Z,24.60
2019-03-31T12:56:58.260Z,24.60
2019-03-31T13:01:06.587Z,24.18
2019-03-31T13:05:14.760Z,23.99
2019-03-31T13:09:23.638Z,23.69
2019-03-31T13:13:31.300Z,24.52
2019-03-31T13:17:38.882Z,24.16
2019-03-31T13:21:47.555Z,23.61
2019-03-31T13:25:55.537Z,24.07
2019-03-31T13:30:03.050Z,23.97
2019-03-31T13:34:10.681Z,23.76
2019-03-31T13:38:18.290Z,22.21
2019-03-31T13:42:25.864Z,23.59
2019-03-31T13:46:35.216Z,23.59
2019-03-31T13:50:42.769Z,22.35
2019-03-31T13:54:50.500Z,22.35
2019-03-31T13:58:58.205Z,23.00
2019-03-31T14:03:05.876Z,23.46
2019-03-31T14:07:13.418Z,24.08
2019-03-31T14:11:21.734Z,23.32
2019-03-31T14:15:29.650Z,23.19
2019-03-31T14:19:43.090Z,23.37
2019-03-31T14:23:57.019Z,23.37
2019-03-31T14:28:06.130Z,22.66
2019-03-31T14:32:13.682Z,21.31
2019-03-31T14:36:21.271Z,21.31
2019-03-31T14:40:28.957Z,20.18
2019-03-31T14:44:36.950Z,19.39
2019-03-31T14:48:44.829Z,19.73
2019-03-31T14:52:52.342Z,19.40
2019-03-31T14:56:59.957Z,18.91
2019-03-31T15:01:07.614Z,18.77
2019-03-31T15:05:15.341Z,18.32
2019-03-31T15:09:22.899Z,17.82
2019-03-31T15:13:30.727Z,17.52
2019-03-31T15:17:38.315Z,17.30
2019-03-31T15:21:45.985Z,17.00
2019-03-31T15:25:55.187Z,16.90
2019-03-31T15:30:03.091Z,16.55
2019-03-31T15:34:10.657Z,16.51
2019-03-31T15:38:18.651Z,16.36
2019-03-31T15:42:26.365Z,16.08
2019-03-31T15:46:34.038Z,16.15
2019-03-31T15:50:41.690Z,16.11
2019-03-31T15:54:49.402Z,15.94
2019-03-31T15:58:57.126Z,15.77
2019-03-31T16:03:04.896Z,15.58
2019-03-31T16:07:12.712Z,15.57
2019-03-31T16:11:19.823Z,15.48
2019-03-31T16:15:26.583Z,15.39
2019-03-31T16:19:33.274Z,15.17
2019-03-31T16:23:40.160Z,14.95
2019-03-31T16:27:46.822Z,14.86
2019-03-31T16:31:53.646Z,14.73
2019-03-31T16:36:00.352Z,14.79
2019-03-31T16:40:08.029Z,14.73
2019-03-31T16:44:14.830Z,14.67
2019-03-31T16:48:22.918Z,14.57
2019-03-31T16:52:29.666Z,14.38
2019-03-31T16:56:36.411Z,14.31
2019-03-31T17:00:43.607Z,14.22
2019-03-31T17:04:50.556Z,14.32
2019-03-31T17:08:57.255Z,14.32
2019-03-31T17:13:05.731Z,14.00
2019-03-31T17:17:13.108Z,13.93
2019-03-31T17:21:19.935Z,13.78
2019-03-31T17:25:26.863Z,13.66
2019-03-31T17:29:33.531Z,13.52
2019-03-31T17:33:40.386Z,13.32
2019-03-31T17:37:47.298Z,13.29
2019-03-31T17:41:54.348Z,13.18
2019-03-31T17:46:01.295Z,13.10
2019-03-31T17:50:09.107Z,12.91
2019-03-31T17:54:16.737Z,12.81
2019-03-31T17:58:23.640Z,12.80
2019-03-31T18:02:30.925Z,12.65
2019-03-31T18:06:39.703Z,12.60
2019-03-31T18:10:47.138Z,12.49
2019-03-31T18:14:53.957Z,12.35
2019-03-31T18:19:00.890Z,12.33
2019-03-31T18:23:07.928Z,12.25
2019-03-31T18:27:14.832Z,12.04
2019-03-31T18:31:24.323Z,11.99
2019-03-31T18:35:33.947Z,11.89
2019-03-31T18:39:41.148Z,11.79
2019-03-31T18:43:51.591Z,11.71
2019-03-31T18:47:56.572Z,11.62
2019-03-31T18:52:03.454Z,11.58
2019-03-31T18:56:20.001Z,11.58
2019-03-31T19:00:44.392Z,11.50
2019-03-31T19:05:15.748Z,11.48
2019-03-31T19:09:41.488Z,11.35
2019-03-31T19:14:07.391Z,11.26
2019-03-31T19:18:37.684Z,11.20
2019-03-31T19:23:15.518Z,11.16
2019-03-31T19:27:39.732Z,11.08
2019-03-31T19:32:06.301Z,11.05
2019-03-31T19:36:44.193Z,10.97
2019-03-31T19:41:08.820Z,10.91
2019-03-31T19:45:43.692Z,10.90
2019-03-31T19:50:15.710Z,10.90
2019-03-31T19:54:44.842Z,10.73
2019-03-31T19:59:29.323Z,10.68
2019-03-31T20:04:10.578Z,10.60
2019-03-31T20:08:45.440Z,10.54
2019-03-31T20:13:10.980Z,10.44
2019-03-31T20:17:26.686Z,10.33
2019-03-31T20:21:47.490Z,10.36
2019-03-31T20:26:12.002Z,10.26
2019-03-31T20:30:40.803Z,10.20
2019-03-31T20:35:10.024Z,10.15
2019-03-31T20:39:22.920Z,10.06
2019-03-31T20:43:48.578Z,10.01
2019-03-31T20:47:55.312Z,9.96
2019-03-31T20:52:02.317Z,9.94
2019-03-31T20:56:09.036Z,9.83
2019-03-31T21:00:16.216Z,9.79
2019-03-31T21:04:22.990Z,9.73
2019-03-31T21:08:29.797Z,9.66
2019-03-31T21:12:36.676Z,9.54
2019-03-31T21:16:43.414Z,9.55
2019-03-31T21:20:50.125Z,9.40
2019-03-31T21:24:56.835Z,9.41
2019-03-31T21:29:03.458Z,9.24
2019-03-31T21:33:10.203Z,9.19
2019-03-31T21:37:16.901Z,9.14
2019-03-31T21:41:24.866Z,9.10
2019-03-31T21:45:31.556Z,9.12
2019-03-31T21:49:38.266Z,9.02
2019-03-31T21:53:44.952Z,9.02
2019-03-31T21:57:51.639Z,8.94
2019-03-31T22:01:58.374Z,8.76
2019-03-31T22:06:05.096Z,8.85
2019-03-31T22:10:11.957Z,8.81
2019-03-31T22:14:18.677Z,8.80
2019-03-31T22:18:25.570Z,8.69
2019-03-31T22:22:32.419Z,8.68
2019-03-31T22:26:39.160Z,8.72
2019-03-31T22:30:45.849Z,8.67
2019-03-31T22:34:52.608Z,8.58
2019-03-31T22:38:59.346Z,8.61
2019-03-31T22:43:07.838Z,8.55
2019-03-31T22:47:14.553Z,8.45
2019-03-31T22:51:21.295Z,8.41
2019-03-31T22:55:29.220Z,8.33
2019-03-31T22:59:35.829Z,8.33
2019-03-31T23:03:42.507Z,8.31
2019-03-31T23:07:49.245Z,8.29
2019-03-31T23:11:56.961Z,8.22
2019-03-31T23:16:03.645Z,8.18
2019-03-31T23:20:10.346Z,8.29
2019-03-31T23:24:17.018Z,8.16
2019-03-31T23:28:23.893Z,8.19
2019-03-31T23:32:30.593Z,8.11
2019-03-31T23:36:37.297Z,8.06
2019-03-31T23:40:44.067Z,8.05
2019-03-31T23:44:50.738Z,8.07
2019-03-31T23:48:57.413Z,7.96
2019-03-31T23:53:04.080Z,7.86
2019-03-31T23:57:10.817Z,7.80
